createdAt,value
2019-03-31T00:01:14.970Z,6.10
2019-03-31T00:03:43.545Z,5.80
2019-03-31T00:06:12.115Z,5.40
2019-03-31T00:08:40.681Z,6.10
2019-03-31T00:11:09.256Z,6.40
2019-03-31T00:13:37.812Z,6.70
2019-03-31T00:16:06.443Z,7.00
2019-03-31T00:18:35.025Z,7.00
2019-03-31T00:21:03.669Z,7.00
2019-03-31T00:23:32.312Z,7.00
2019-03-31T00:26:00.868Z,7.00
2019-03-31T00:28:29.433Z,6.80
2019-03-31T00:30:58.018Z,6.60
2019-03-31T00:33:26.582Z,6.70
2019-03-31T00:35:55.165Z,6.60
2019-03-31T00:38:23.779Z,6.00
2019-03-31T00:40:52.311Z,6.10
2019-03-31T00:43:20.887Z,5.90
2019-03-31T00:45:49.460Z,5.60
2019-03-31T00:48:18.017Z,5.40
2019-03-31T00:50:46.593Z,5.50
2019-03-31T00:53:15.154Z,5.60
2019-03-31T00:55:43.735Z,5.40
2019-03-31T00:58:12.294Z,5.50
2019-03-31T01:00:46.531Z,5.80
2019-03-31T01:03:15.499Z,5.90
2019-03-31T01:05:44.713Z,6.00
2019-03-31T01:08:13.514Z,6.20
2019-03-31T01:10:43.426Z,6.00
2019-03-31T01:13:12.239Z,5.90
2019-03-31T01:15:41.078Z,5.90
2019-03-31T01:18:10.971Z,5.90
2019-03-31T01:20:39.891Z,5.80
2019-03-31T01:23:08.717Z,5.50
2019-03-31T01:25:37.386Z,5.30
2019-03-31T01:28:05.943Z,5.60
2019-03-31T01:30:34.588Z,5.80
2019-03-31T01:33:03.570Z,5.60
2019-03-31T01:35:32.156Z,5.30
2019-03-31T01:38:00.718Z,5.30
2019-03-31T01:40:29.470Z,5.50
2019-03-31T01:42:58.020Z,5.70
2019-03-31T01:45:26.669Z,5.40
2019-03-31T01:47:55.300Z,5.10
2019-03-31T01:50:24.853Z,5.30
2019-03-31T01:52:53.401Z,5.60
2019-03-31T01:55:21.980Z,6.00
2019-03-31T01:57:50.540Z,6.00
2019-03-31T02:00:29.897Z,5.60
2019-03-31T02:02:58.458Z,5.70
2019-03-31T02:05:27.046Z,5.80
2019-03-31T02:07:55.602Z,5.80
2019-03-31T02:10:24.186Z,5.90
2019-03-31T02:12:52.757Z,6.00
2019-03-31T02:15:21.313Z,5.90
2019-03-31T02:17:49.874Z,6.10
2019-03-31T02:20:18.449Z,6.30
2019-03-31T02:22:47.081Z,6.40
2019-03-31T02:25:15.657Z,6.50
2019-03-31T02:27:44.223Z,6.60
2019-03-31T02:30:13.142Z,6.60
2019-03-31T02:32:41.704Z,6.60
2019-03-31T02:35:10.714Z,6.50
2019-03-31T02:37:39.337Z,6.40
2019-03-31T02:40:08.066Z,6.00
2019-03-31T02:42:36.617Z,5.50
2019-03-31T02:45:08.137Z,5.60
2019-03-31T02:47:36.698Z,5.30
2019-03-31T02:50:06.985Z,5.20
2019-03-31T02:52:35.621Z,5.50
2019-03-31T02:55:04.530Z,5.30
2019-03-31T02:57:33.328Z,5.10
2019-03-31T03:00:02.882Z,5.40
2019-03-31T03:02:42.041Z,5.80
2019-03-31T03:05:19.020Z,5.40
2019-03-31T03:07:37.764Z,4.80
2019-03-31T03:10:06.893Z,5.10
2019-03-31T03:12:36.097Z,5.30
2019-03-31T03:15:05.320Z,5.50
2019-03-31T03:17:33.877Z,5.60
2019-03-31T03:20:02.464Z,5.70
2019-03-31T03:22:31.025Z,5.80
2019-03-31T03:24:59.590Z,5.70
2019-03-31T03:27:28.163Z,5.50
2019-03-31T03:29:56.718Z,5.60
2019-03-31T03:32:25.320Z,5.80
2019-03-31T03:34:53.867Z,5.80
2019-03-31T03:37:22.433Z,5.90
2019-03-31T03:39:50.994Z,5.80
2019-03-31T03:42:19.568Z,5.70
2019-03-31T03:44:48.127Z,5.70
2019-03-31T03:47:16.701Z,5.50
2019-03-31T03:49:45.258Z,5.40
2019-03-31T03:52:13.837Z,5.30
2019-03-31T03:54:42.395Z,4.70
2019-03-31T03:57:10.979Z,4.70
2019-03-31T03:59:39.550Z,4.90
2019-03-31T04:02:08.138Z,5.10
2019-03-31T04:04:36.688Z,5.10
2019-03-31T04:07:05.269Z,4.80
2019-03-31T04:09:33.839Z,4.90
2019-03-31T04:12:02.417Z,4.80
2019-03-31T04:14:30.968Z,5.10
2019-03-31T04:16:59.541Z,5.50
2019-03-31T04:19:28.101Z,5.70
2019-03-31T04:21:56.674Z,5.70
2019-03-31T04:24:25.230Z,5.90
2019-03-31T04:26:53.818Z,5.70
2019-03-31T04:29:22.369Z,5.80
2019-03-31T04:31:50.950Z,6.00
2019-03-31T04:34:19.502Z,6.10
2019-03-31T04:36:48.091Z,5.90
2019-03-31T04:39:16.642Z,5.80
2019-03-31T04:41:45.217Z,5.70
2019-03-31T04:44:13.773Z,5.80
2019-03-31T04:46:42.426Z,5.60
2019-03-31T04:49:10.992Z,5.30
2019-03-31T04:51:39.565Z,5.40
2019-03-31T04:54:08.114Z,5.70
2019-03-31T04:56:36.694Z,5.60
2019-03-31T04:59:05.255Z,5.50
2019-03-31T05:01:33.829Z,5.40
2019-03-31T05:04:05.030Z,5.20
2019-03-31T05:06:32.620Z,5.30
2019-03-31T05:09:01.213Z,5.40
2019-03-31T05:11:29.758Z,5.30
2019-03-31T05:13:58.308Z,5.30
2019-03-31T05:16:26.898Z,5.20
2019-03-31T05:18:55.454Z,5.20
2019-03-31T05:21:24.035Z,5.10
2019-03-31T05:23:52.597Z,5.20
2019-03-31T05:26:21.180Z,5.10
2019-03-31T05:28:49.725Z,4.90
2019-03-31T05:31:18.310Z,4.70
2019-03-31T05:33:46.866Z,4.90
2019-03-31T05:36:15.461Z,4.90
2019-03-31T05:38:44.018Z,4.90
2019-03-31T05:41:12.595Z,4.70
2019-03-31T05:43:41.158Z,4.80
2019-03-31T05:46:09.741Z,4.70
2019-03-31T05:48:38.298Z,4.70
2019-03-31T05:51:06.857Z,4.80
2019-03-31T05:53:35.433Z,4.80
2019-03-31T05:56:03.994Z,4.60
2019-03-31T05:58:32.587Z,4.60
2019-03-31T06:01:01.142Z,4.70
2019-03-31T06:03:29.717Z,4.90
2019-03-31T06:05:58.279Z,5.20
2019-03-31T06:08:26.999Z,5.20
2019-03-31T06:10:55.520Z,5.30
2019-03-31T06:13:24.105Z,5.40
2019-03-31T06:15:52.668Z,5.30
2019-03-31T06:18:21.258Z,5.40
2019-03-31T06:20:49.818Z,5.60
2019-03-31T06:23:18.417Z,5.80
2019-03-31T06:25:46.974Z,5.90
2019-03-31T06:28:15.735Z,5.90
2019-03-31T06:30:44.293Z,5.80
2019-03-31T06:33:12.873Z,5.80
2019-03-31T06:35:41.434Z,5.90
2019-03-31T06:38:10.012Z,6.10
2019-03-31T06:40:38.942Z,6.10
2019-03-31T06:43:07.526Z,6.00
2019-03-31T06:45:36.084Z,6.10
2019-03-31T06:48:04.681Z,6.10
2019-03-31T06:50:33.239Z,6.10
2019-03-31T06:53:01.823Z,6.20
2019-03-31T06:55:30.383Z,6.30
2019-03-31T06:57:58.969Z,6.30
2019-03-31T07:00:27.530Z,6.40
2019-03-31T07:02:56.229Z,6.60
2019-03-31T07:05:24.795Z,6.80
2019-03-31T07:07:53.366Z,6.90
2019-03-31T07:10:21.926Z,7.00
2019-03-31T07:12:50.509Z,7.30
2019-03-31T07:15:19.141Z,7.50
2019-03-31T07:17:47.722Z,7.80
2019-03-31T07:20:17.022Z,8.00
2019-03-31T07:22:45.597Z,8.10
2019-03-31T07:25:15.405Z,8.30
2019-03-31T07:27:43.986Z,8.40
2019-03-31T07:30:15.659Z,8.50
2019-03-31T07:32:44.313Z,8.60
2019-03-31T07:35:18.754Z,8.60
2019-03-31T07:37:47.373Z,8.90
2019-03-31T07:40:20.248Z,9.00
2019-03-31T07:42:51.131Z,8.90
2019-03-31T07:45:20.095Z,8.80
2019-03-31T07:47:48.670Z,8.80
2019-03-31T07:50:19.470Z,8.90
2019-03-31T07:52:48.058Z,8.90
2019-03-31T07:55:17.048Z,9.10
2019-03-31T07:57:46.126Z,9.30
2019-03-31T08:00:20.452Z,9.40
2019-03-31T08:02:49.034Z,9.60
2019-03-31T08:05:32.034Z,9.70
2019-03-31T08:07:48.355Z,9.70
2019-03-31T08:10:17.249Z,9.60
2019-03-31T08:12:45.898Z,9.50
2019-03-31T08:15:15.000Z,9.50
2019-03-31T08:17:43.588Z,9.50
2019-03-31T08:20:14.593Z,9.50
2019-03-31T08:22:43.162Z,9.50
2019-03-31T08:25:13.629Z,9.50
2019-03-31T08:27:42.212Z,9.50
2019-03-31T08:30:13.226Z,9.70
2019-03-31T08:32:41.856Z,9.60
2019-03-31T08:35:10.758Z,9.70
2019-03-31T08:37:39.339Z,9.60
2019-03-31T08:40:10.316Z,9.70
2019-03-31T08:42:38.918Z,9.80
2019-03-31T08:45:08.208Z,9.90
2019-03-31T08:47:37.229Z,9.90
2019-03-31T08:50:06.930Z,10.00
2019-03-31T08:52:35.513Z,10.00
2019-03-31T08:55:04.828Z,9.90
2019-03-31T08:57:33.381Z,9.70
2019-03-31T09:00:01.970Z,9.90
2019-03-31T09:02:32.241Z,10.00
2019-03-31T09:05:00.833Z,10.20
2019-03-31T09:07:29.408Z,10.30
2019-03-31T09:09:57.981Z,10.40
2019-03-31T09:12:26.546Z,10.40
2019-03-31T09:14:55.129Z,10.30
2019-03-31T09:17:23.692Z,10.50
2019-03-31T09:19:52.278Z,10.70
2019-03-31T09:22:20.836Z,10.50
2019-03-31T09:24:49.425Z,10.60
2019-03-31T09:27:17.989Z,10.60
2019-03-31T09:29:46.570Z,10.40
2019-03-31T09:32:15.134Z,10.40
2019-03-31T09:34:43.948Z,10.40
2019-03-31T09:37:12.473Z,10.40
2019-03-31T09:39:41.059Z,10.30
2019-03-31T09:42:09.617Z,10.60
2019-03-31T09:44:38.218Z,10.70
2019-03-31T09:47:06.846Z,10.60
2019-03-31T09:49:35.429Z,10.80
2019-03-31T09:52:04.069Z,11.00
2019-03-31T09:54:32.658Z,10.90
2019-03-31T09:57:01.219Z,10.90
2019-03-31T09:59:29.804Z,11.20
2019-03-31T10:01:58.358Z,11.20
2019-03-31T10:04:26.941Z,11.00
2019-03-31T10:06:56.051Z,11.10
2019-03-31T10:09:25.046Z,10.90
2019-03-31T10:11:53.611Z,11.00
2019-03-31T10:14:22.192Z,10.90
2019-03-31T10:16:50.762Z,11.10
2019-03-31T10:19:19.424Z,11.00
2019-03-31T10:21:48.000Z,11.10
2019-03-31T10:24:16.576Z,11.00
2019-03-31T10:26:45.132Z,11.00
2019-03-31T10:29:13.721Z,10.90
2019-03-31T10:31:42.289Z,11.00
2019-03-31T10:34:10.936Z,11.00
2019-03-31T10:36:44.791Z,11.00
2019-03-31T10:39:10.096Z,11.10
2019-03-31T10:41:38.681Z,11.10
2019-03-31T10:44:07.270Z,11.10
2019-03-31T10:46:35.835Z,11.10
2019-03-31T10:49:04.561Z,11.00
2019-03-31T10:51:33.133Z,11.00
2019-03-31T10:54:04.428Z,11.00
2019-03-31T10:56:32.053Z,11.10
2019-03-31T10:59:00.638Z,11.00
2019-03-31T11:01:29.196Z,10.90
2019-03-31T11:03:57.794Z,10.70
2019-03-31T11:06:26.422Z,10.90
2019-03-31T11:08:55.005Z,10.80
2019-03-31T11:11:23.565Z,10.80
2019-03-31T11:13:52.153Z,11.00
2019-03-31T11:16:20.822Z,11.20
2019-03-31T11:18:49.704Z,11.30
2019-03-31T11:21:19.907Z,11.20
2019-03-31T11:23:48.488Z,11.20
2019-03-31T11:26:17.222Z,11.10
2019-03-31T11:28:45.784Z,11.10
2019-03-31T11:31:17.818Z,11.10
2019-03-31T11:33:45.052Z,11.10
2019-03-31T11:36:13.772Z,10.90
2019-03-31T11:38:42.551Z,11.00
2019-03-31T11:41:11.276Z,11.00
2019-03-31T11:43:39.831Z,11.00
2019-03-31T11:46:08.918Z,11.00
2019-03-31T11:48:38.188Z,11.00
2019-03-31T11:51:07.073Z,11.20
2019-03-31T11:53:35.999Z,11.20
2019-03-31T11:56:07.334Z,11.20
2019-03-31T11:58:36.554Z,11.30
2019-03-31T12:01:05.454Z,11.30
2019-03-31T12:03:34.486Z,11.20
2019-03-31T12:06:03.398Z,11.20
2019-03-31T12:08:31.965Z,11.30
2019-03-31T12:11:00.618Z,11.30
2019-03-31T12:13:29.181Z,11.20
2019-03-31T12:15:57.847Z,11.00
2019-03-31T12:18:26.561Z,11.10
2019-03-31T12:20:55.361Z,11.10
2019-03-31T12:23:24.029Z,11.10
2019-03-31T12:25:52.640Z,11.00
2019-03-31T12:28:21.154Z,11.00
2019-03-31T12:30:49.741Z,11.10
2019-03-31T12:33:18.305Z,11.10
2019-03-31T12:35:46.972Z,11.10
2019-03-31T12:38:15.725Z,11.10
2019-03-31T12:40:45.464Z,11.10
2019-03-31T12:43:14.109Z,11.20
2019-03-31T12:45:43.550Z,11.20
2019-03-31T12:48:12.219Z,11.30
2019-03-31T12:50:40.951Z,11.20
2019-03-31T12:53:09.697Z,11.10
2019-03-31T12:55:38.438Z,11.10
2019-03-31T12:58:07.249Z,11.10
2019-03-31T13:00:37.571Z,11.30
2019-03-31T13:03:12.146Z,11.30
2019-03-31T13:05:40.967Z,11.30
2019-03-31T13:08:09.708Z,11.20
2019-03-31T13:10:38.460Z,11.00
2019-03-31T13:13:07.511Z,11.10
2019-03-31T13:15:36.431Z,11.00
2019-03-31T13:18:06.128Z,11.00
2019-03-31T13:20:35.180Z,10.80
2019-03-31T13:23:04.080Z,10.90
2019-03-31T13:25:33.013Z,10.90
2019-03-31T13:28:01.751Z,10.90
2019-03-31T13:30:30.550Z,10.90
2019-03-31T13:32:59.313Z,10.70
2019-03-31T13:35:27.874Z,10.90
2019-03-31T13:38:09.936Z,10.90
2019-03-31T13:40:26.748Z,10.90
2019-03-31T13:42:55.397Z,10.70
2019-03-31T13:45:24.058Z,10.70
2019-03-31T13:47:52.597Z,10.60
2019-03-31T13:50:22.953Z,10.60
2019-03-31T13:52:51.512Z,10.50
2019-03-31T13:55:20.353Z,10.50
2019-03-31T13:57:49.776Z,10.70
2019-03-31T14:00:37.199Z,10.60
2019-03-31T14:03:06.345Z,10.60
2019-03-31T14:05:35.270Z,10.60
2019-03-31T14:08:04.781Z,10.60
2019-03-31T14:10:34.059Z,10.50
2019-03-31T14:13:02.970Z,10.30
2019-03-31T14:15:31.622Z,10.30
2019-03-31T14:18:00.188Z,10.20
2019-03-31T14:20:28.795Z,10.30
2019-03-31T14:22:57.350Z,10.40
2019-03-31T14:25:25.945Z,10.30
2019-03-31T14:27:54.509Z,10.30
2019-03-31T14:30:24.033Z,10.20
2019-03-31T14:32:52.605Z,10.10
2019-03-31T14:35:21.198Z,10.10
2019-03-31T14:37:49.755Z,10.00
2019-03-31T14:40:18.340Z,9.90
2019-03-31T14:42:46.906Z,9.90
2019-03-31T14:45:33.026Z,9.90
2019-03-31T14:48:01.929Z,9.60
2019-03-31T14:50:32.348Z,9.50
2019-03-31T14:53:01.182Z,9.30
2019-03-31T14:55:29.779Z,9.30
2019-03-31T14:57:59.222Z,9.10
2019-03-31T15:00:27.798Z,9.00
2019-03-31T15:02:56.349Z,9.10
2019-03-31T15:05:24.914Z,9.30
2019-03-31T15:07:58.199Z,9.40
2019-03-31T15:10:24.877Z,9.40
2019-03-31T15:12:53.462Z,9.40
2019-03-31T15:15:22.013Z,9.30
2019-03-31T15:17:50.592Z,9.20
2019-03-31T15:20:19.149Z,9.30
2019-03-31T15:22:51.250Z,9.20
2019-03-31T15:25:17.952Z,9.10
2019-03-31T15:27:46.535Z,9.00
2019-03-31T15:30:16.033Z,9.10
2019-03-31T15:32:44.682Z,9.20
2019-03-31T15:35:13.516Z,9.10
2019-03-31T15:37:42.100Z,9.20
2019-03-31T15:40:11.017Z,9.20
2019-03-31T15:42:39.828Z,9.20
2019-03-31T15:45:09.039Z,9.20
2019-03-31T15:47:37.994Z,9.30
2019-03-31T15:50:07.181Z,9.40
2019-03-31T15:52:35.769Z,9.50
2019-03-31T15:55:06.375Z,9.50
2019-03-31T15:57:34.953Z,9.50
2019-03-31T16:00:04.993Z,9.50
2019-03-31T16:02:33.577Z,9.40
2019-03-31T16:05:02.148Z,9.40
2019-03-31T16:07:30.733Z,9.40
2019-03-31T16:09:59.292Z,9.40
2019-03-31T16:12:27.861Z,9.40
2019-03-31T16:14:56.426Z,9.30
2019-03-31T16:17:25.017Z,9.20
2019-03-31T16:19:53.573Z,9.30
2019-03-31T16:22:22.159Z,9.30
2019-03-31T16:24:52.358Z,9.40
2019-03-31T16:27:20.943Z,9.20
2019-03-31T16:29:49.511Z,9.30
2019-03-31T16:32:18.089Z,9.10
2019-03-31T16:34:46.650Z,9.10
2019-03-31T16:37:15.225Z,9.20
2019-03-31T16:39:43.826Z,9.10
2019-03-31T16:42:12.405Z,9.00
2019-03-31T16:44:40.965Z,9.00
2019-03-31T16:47:09.550Z,9.10
2019-03-31T16:49:38.142Z,9.10
2019-03-31T16:52:06.730Z,9.00
2019-03-31T16:54:35.291Z,8.90
2019-03-31T16:57:03.865Z,8.90
2019-03-31T16:59:32.438Z,8.90
2019-03-31T17:02:01.009Z,8.80
2019-03-31T17:04:29.565Z,8.90
2019-03-31T17:06:58.149Z,8.80
2019-03-31T17:09:26.712Z,8.80
2019-03-31T17:11:55.295Z,8.90
2019-03-31T17:14:23.862Z,9.00
2019-03-31T17:16:52.467Z,8.90
2019-03-31T17:19:20.996Z,8.70
2019-03-31T17:21:49.585Z,8.50
2019-03-31T17:24:18.142Z,8.70
2019-03-31T17:26:46.724Z,8.80
2019-03-31T17:29:15.286Z,8.60
2019-03-31T17:31:43.866Z,8.60
2019-03-31T17:34:12.421Z,8.60
2019-03-31T17:36:41.009Z,8.60
2019-03-31T17:39:09.561Z,8.50
2019-03-31T17:41:38.120Z,8.50
2019-03-31T17:44:06.701Z,8.40
2019-03-31T17:46:35.296Z,8.60
2019-03-31T17:49:03.841Z,8.60
2019-03-31T17:51:32.406Z,8.70
2019-03-31T17:54:00.990Z,8.50
2019-03-31T17:56:29.555Z,8.50
2019-03-31T17:58:58.140Z,8.50
2019-03-31T18:01:26.696Z,8.60
2019-03-31T18:03:55.270Z,8.60
2019-03-31T18:06:23.834Z,8.70
2019-03-31T18:08:52.404Z,8.80
2019-03-31T18:11:21.032Z,8.80
2019-03-31T18:13:49.545Z,8.80
2019-03-31T18:16:18.104Z,8.80
2019-03-31T18:18:46.677Z,8.80
2019-03-31T18:21:15.233Z,8.80
2019-03-31T18:23:43.812Z,8.80
2019-03-31T18:26:12.377Z,8.80
2019-03-31T18:28:43.672Z,8.70
2019-03-31T18:31:11.176Z,8.60
2019-03-31T18:33:39.752Z,8.50
2019-03-31T18:36:08.427Z,8.50
2019-03-31T18:38:36.954Z,8.40
2019-03-31T18:41:05.520Z,8.50
2019-03-31T18:43:34.094Z,8.50
2019-03-31T18:46:02.653Z,8.50
2019-03-31T18:48:31.240Z,8.50
2019-03-31T18:50:59.794Z,8.50
2019-03-31T18:53:45.083Z,8.50
2019-03-31T18:56:21.248Z,8.50
2019-03-31T18:59:03.729Z,8.50
2019-03-31T19:01:39.652Z,8.50
2019-03-31T19:04:15.774Z,8.60
2019-03-31T19:06:48.818Z,8.60
2019-03-31T19:09:27.906Z,8.60
2019-03-31T19:11:58.102Z,8.60
2019-03-31T19:14:31.290Z,8.50
2019-03-31T19:17:17.801Z,8.60
2019-03-31T19:19:48.033Z,8.50
2019-03-31T19:22:20.937Z,8.50
2019-03-31T19:24:59.941Z,8.50
2019-03-31T19:27:32.865Z,8.50
2019-03-31T19:30:19.555Z,8.60
2019-03-31T19:32:50.611Z,8.60
2019-03-31T19:35:26.618Z,8.60
2019-03-31T19:37:59.801Z,8.60
2019-03-31T19:40:46.469Z,8.60
2019-03-31T19:43:16.698Z,8.50
2019-03-31T19:48:42.810Z,8.50
2019-03-31T19:51:13.155Z,8.50
2019-03-31T19:53:46.374Z,8.50
2019-03-31T19:56:19.657Z,8.50
2019-03-31T19:58:49.877Z,8.40
2019-03-31T20:01:36.332Z,8.40
2019-03-31T20:04:09.200Z,8.30
2019-03-31T20:06:45.422Z,8.30
2019-03-31T20:09:18.596Z,8.20
2019-03-31T20:11:54.577Z,8.20
2019-03-31T20:14:30.937Z,8.20
2019-03-31T20:17:23.817Z,8.20
2019-03-31T20:19:59.724Z,8.10
2019-03-31T20:22:32.866Z,8.10
2019-03-31T20:25:03.068Z,8.10
2019-03-31T20:27:33.270Z,8.10
2019-03-31T20:30:06.384Z,8.10
2019-03-31T20:32:42.541Z,8.10
2019-03-31T20:35:29.136Z,8.10
2019-03-31T20:38:05.104Z,8.10
2019-03-31T20:40:37.989Z,8.00
2019-03-31T20:43:08.209Z,7.90
2019-03-31T20:45:36.761Z,7.90
2019-03-31T20:48:05.318Z,7.90
2019-03-31T20:50:33.900Z,7.80
2019-03-31T20:53:02.446Z,7.80
2019-03-31T20:55:31.022Z,7.70
2019-03-31T20:57:59.583Z,7.70
2019-03-31T21:00:28.247Z,7.70
2019-03-31T21:02:56.817Z,7.60
2019-03-31T21:05:25.405Z,7.60
2019-03-31T21:07:53.953Z,7.60
2019-03-31T21:10:22.545Z,7.60
2019-03-31T21:12:51.097Z,7.60
2019-03-31T21:15:19.674Z,7.70
2019-03-31T21:17:48.246Z,7.80
2019-03-31T21:20:16.813Z,7.80
2019-03-31T21:22:45.372Z,7.80
2019-03-31T21:25:13.998Z,7.80
2019-03-31T21:27:42.515Z,7.90
2019-03-31T21:30:11.329Z,7.90
2019-03-31T21:32:39.877Z,7.90
2019-03-31T21:35:08.534Z,7.80
2019-03-31T21:37:37.101Z,7.80
2019-03-31T21:40:07.011Z,7.80
2019-03-31T21:42:35.561Z,7.80
2019-03-31T21:45:05.676Z,7.70
2019-03-31T21:47:34.236Z,7.50
2019-03-31T21:50:02.884Z,7.40
2019-03-31T21:52:31.437Z,7.30
2019-03-31T21:55:00.012Z,7.20
2019-03-31T21:57:28.578Z,7.20
2019-03-31T21:59:57.158Z,7.00
2019-03-31T22:02:25.718Z,7.00
2019-03-31T22:04:54.297Z,6.80
2019-03-31T22:07:22.853Z,6.80
2019-03-31T22:09:51.421Z,7.00
2019-03-31T22:12:19.973Z,7.10
2019-03-31T22:14:48.562Z,7.10
2019-03-31T22:17:17.113Z,7.20
2019-03-31T22:19:45.751Z,7.20
2019-03-31T22:22:14.310Z,7.30
2019-03-31T22:24:42.889Z,7.30
2019-03-31T22:27:11.454Z,7.40
2019-03-31T22:29:40.030Z,7.40
2019-03-31T22:32:08.585Z,7.30
2019-03-31T22:34:37.165Z,7.30
2019-03-31T22:37:05.726Z,7.10
2019-03-31T22:39:34.302Z,7.10
2019-03-31T22:42:02.857Z,7.00
2019-03-31T22:44:31.447Z,6.90
2019-03-31T22:46:59.988Z,6.80
2019-03-31T22:49:28.562Z,6.80
2019-03-31T22:51:58.466Z,6.70
2019-03-31T22:54:27.046Z,6.70
2019-03-31T22:56:55.601Z,6.70
2019-03-31T22:59:24.191Z,6.80
2019-03-31T23:01:52.743Z,6.70
2019-03-31T23:04:21.316Z,6.80
2019-03-31T23:06:49.869Z,6.80
2019-03-31T23:09:18.445Z,6.80
2019-03-31T23:11:46.998Z,6.80
2019-03-31T23:14:15.634Z,6.80
2019-03-31T23:16:44.217Z,6.80
2019-03-31T23:19:12.768Z,6.90
2019-03-31T23:21:41.345Z,6.90
2019-03-31T23:24:09.973Z,6.90
2019-03-31T23:26:38.477Z,6.90
2019-03-31T23:29:07.027Z,7.00
2019-03-31T23:31:35.609Z,6.90
2019-03-31T23:34:04.176Z,7.00
2019-03-31T23:36:32.746Z,7.10
2019-03-31T23:39:01.317Z,7.10
2019-03-31T23:41:29.884Z,7.20
2019-03-31T23:43:58.449Z,7.20
2019-03-31T23:46:27.024Z,7.10
2019-03-31T23:48:55.582Z,7.10
2019-03-31T23:51:24.157Z,7.10
2019-03-31T23:53:52.709Z,7.20
2019-03-31T23:56:21.288Z,7.30
2019-03-31T23:58:49.851Z,7.40
